Time;durP1;ratioP1;P1;durP2;ratioP2;P2;SDS_P1;SDS_P2;PMS_P1;PMS_P2;Temp;Humidity;BMP_temperature;BMP_pressure;BME280_temperature;BME280_humidity;BME280_pressure;Samples;Min_cycle;Max_cycle;Signal;HPM_P1;HPM_P2
2022/11/01 00:02:13;;;;;;;44.55;17.32;;;;;;;12.30;89.08;99869.22;1705049;83;21071;-80
2022/11/01 00:04:41;;;;;;;46.48;16.97;;;;;;;12.32;88.74;99870.05;1714737;83;21079;-80
2022/11/01 00:07:08;;;;;;;45.00;15.45;;;;;;;12.35;88.66;99867.81;1710376;83;21556;-80
2022/11/01 00:09:36;;;;;;;51.18;16.30;;;;;;;12.41;88.56;99866.84;1699375;84;21055;-80
2022/11/01 00:12:04;;;;;;;55.45;17.55;;;;;;;12.44;88.30;99863.73;1702762;83;21099;-80
2022/11/01 00:14:32;;;;;;;48.85;17.12;;;;;;;12.41;87.87;99858.56;1711550;83;21011;-81
2022/11/01 00:16:59;;;;;;;45.75;17.07;;;;;;;12.38;87.66;99861.25;1695854;83;21070;-80
2022/11/01 00:19:27;;;;;;;52.03;17.35;;;;;;;12.36;87.69;99861.73;1705238;83;21048;-81
2022/11/01 00:21:55;;;;;;;44.55;16.65;;;;;;;12.38;87.96;99866.92;1700965;83;21588;-80
2022/11/01 00:24:23;;;;;;;44.25;16.73;;;;;;;12.36;87.70;99869.55;1702909;83;21607;-80
2022/11/01 00:26:51;;;;;;;52.27;18.95;;;;;;;12.36;87.38;99869.55;1686268;83;21056;-79
2022/11/01 00:29:19;;;;;;;48.08;19.00;;;;;;;12.32;87.07;99862.69;1698284;83;21043;-80
2022/11/01 00:31:46;;;;;;;53.75;19.07;;;;;;;12.25;87.32;99864.98;1695724;84;21086;-79
2022/11/01 00:34:15;;;;;;;53.48;19.50;;;;;;;12.20;87.02;99856.41;1700557;83;21110;-79
2022/11/01 00:36:43;;;;;;;51.30;18.57;;;;;;;12.14;86.90;99858.23;1702544;83;21061;-80
2022/11/01 00:39:13;;;;;;;52.43;19.65;;;;;;;11.99;86.87;99857.22;1693459;83;21086;-81
2022/11/01 00:41:41;;;;;;;51.40;20.52;;;;;;;11.89;87.05;99862.19;1709466;83;21060;-80
2022/11/01 00:44:09;;;;;;;58.98;19.90;;;;;;;11.80;87.15;99859.70;1700169;83;21046;-80
2022/11/01 00:46:36;;;;;;;56.77;20.55;;;;;;;11.75;87.40;99858.49;1685885;83;21071;-79
2022/11/01 00:49:04;;;;;;;58.42;20.02;;;;;;;11.72;87.34;99861.17;1691489;83;21892;-81
2022/11/01 00:51:31;;;;;;;54.15;20.43;;;;;;;11.65;87.54;99853.88;1707250;83;21047;-80
2022/11/01 00:53:59;;;;;;;61.25;20.35;;;;;;;11.60;87.58;99853.54;1708703;83;21044;-80
2022/11/01 00:56:27;;;;;;;51.63;19.70;;;;;;;11.58;87.75;99854.89;1719948;83;21498;-80
2022/11/01 00:58:54;;;;;;;57.53;20.52;;;;;;;11.55;87.95;99851.02;1700043;84;21049;-80
2022/11/01 01:01:22;;;;;;;47.30;17.45;;;;;;;11.58;87.56;99837.97;1696542;83;21096;-80
2022/11/01 01:03:49;;;;;;;58.35;19.92;;;;;;;11.52;88.04;99837.62;1700533;84;21074;-79
2022/11/01 01:06:17;;;;;;;61.70;20.02;;;;;;;11.51;88.36;99841.09;1712890;83;21122;-79
2022/11/01 01:08:44;;;;;;;54.93;19.60;;;;;;;11.50;87.96;99846.36;1687281;84;21051;-79
2022/11/01 01:11:12;;;;;;;61.23;19.48;;;;;;;11.47;87.90;99842.48;1691314;83;21042;-81
2022/11/01 01:13:40;;;;;;;52.95;18.10;;;;;;;11.39;87.94;99844.36;1711590;83;21112;-79
2022/11/01 01:16:10;;;;;;;53.35;19.62;;;;;;;11.30;88.13;99838.42;1700051;83;22426;-80
2022/11/01 01:18:38;;;;;;;51.45;19.65;;;;;;;11.30;88.69;99841.03;1715422;83;20999;-79
2022/11/01 01:21:06;;;;;;;54.42;19.50;;;;;;;11.37;88.71;99842.23;1715708;83;21107;-80
2022/11/01 01:23:35;;;;;;;51.20;18.90;;;;;;;11.37;89.12;99833.97;1714954;83;21019;-81
2022/11/01 01:26:08;;;;;;;56.20;19.82;;;;;;;11.40;88.94;99840.86;1683273;83;21070;-81
2022/11/01 01:28:36;;;;;;;54.95;19.10;;;;;;;11.42;89.39;99834.77;1714229;83;21125;-79
2022/11/01 01:31:08;;;;;;;56.08;18.85;;;;;;;11.45;88.79;99836.00;1701034;83;21058;-79
2022/11/01 01:33:36;;;;;;;55.35;19.90;;;;;;;11.49;89.18;99835.05;1703270;83;21027;-80
2022/11/01 01:36:06;;;;;;;52.70;18.85;;;;;;;11.50;89.35;99839.39;1721832;83;21112;-79
2022/11/01 01:38:33;;;;;;;60.28;19.90;;;;;;;11.57;89.24;99836.69;1705264;83;21914;-80
2022/11/01 01:43:47;;;;;;;46.77;16.93;;;;;;;11.63;89.51;99841.33;1712227;83;20979;-84
2022/11/01 01:46:15;;;;;;;48.23;18.32;;;;;;;11.63;88.82;99841.33;1700606;83;21622;-81
2022/11/01 01:48:47;;;;;;;46.35;16.67;;;;;;;11.59;89.08;99843.58;1686791;83;21534;-80
2022/11/01 01:51:19;;;;;;;56.18;17.42;;;;;;;11.61;89.26;99847.01;1692674;84;21087;-81
2022/11/01 01:53:51;;;;;;;52.88;18.40;;;;;;;11.62;88.85;99847.86;1710209;83;21039;-80
2022/11/01 01:56:27;;;;;;;51.92;18.23;;;;;;;11.60;88.91;99842.70;1700125;83;21052;-80
2022/11/01 01:59:02;;;;;;;56.83;18.42;;;;;;;11.64;89.34;99841.77;1701574;83;21003;-80
2022/11/01 02:01:34;;;;;;;55.03;18.27;;;;;;;11.63;88.91;99841.78;1699500;83;21062;-80
2022/11/01 02:04:04;;;;;;;42.53;16.55;;;;;;;11.63;89.07;99842.63;1719621;83;20991;-81
2022/11/01 02:06:33;;;;;;;47.43;16.87;;;;;;;11.63;89.52;99843.94;1726886;83;21104;-80
2022/11/01 02:09:03;;;;;;;49.53;16.57;;;;;;;11.65;88.92;99836.95;1706052;83;21047;-85
2022/11/01 02:11:31;;;;;;;41.45;15.85;;;;;;;11.60;89.41;99845.31;1702569;84;21019;-81
2022/11/01 02:14:00;;;;;;;46.35;15.93;;;;;;;11.62;89.56;99845.26;1706068;83;21071;-82
2022/11/01 02:17:09;;;;;;;34.53;14.35;;;;;;;11.61;89.25;99846.16;1724502;83;21105;-83
2022/11/01 02:20:09;;;;;;;42.25;15.72;;;;;;;11.59;89.44;99846.63;1703328;83;21046;-79
2022/11/01 02:23:15;;;;;;;46.23;15.50;;;;;;;11.63;89.42;99850.90;1692572;85;21071;-81
2022/11/01 02:26:05;;;;;;;50.33;16.15;;;;;;;11.60;89.77;99851.82;1713303;83;21070;-81
2022/11/01 02:28:55;;;;;;;53.05;16.25;;;;;;;11.59;89.42;99844.03;1711225;83;21546;-80
2022/11/01 02:31:41;;;;;;;45.25;15.68;;;;;;;11.60;90.05;99841.41;1710733;83;21007;-80
2022/11/01 02:34:28;;;;;;;43.33;15.88;;;;;;;11.65;90.25;99840.86;1705535;83;21007;-82
2022/11/01 02:37:28;;;;;;;45.28;15.75;;;;;;;11.63;89.51;99846.54;1721154;81;21082;-79
2022/11/01 02:40:07;;;;;;;54.30;17.02;;;;;;;11.63;90.35;99844.39;1699922;84;21582;-79
2022/11/01 02:42:42;;;;;;;41.23;15.10;;;;;;;11.63;89.24;99846.98;1709976;83;22172;-81
2022/11/01 02:45:26;;;;;;;41.63;15.83;;;;;;;11.52;90.04;99847.19;1703191;83;21062;-79
2022/11/01 02:47:44;;;;;;;38.88;15.25;;;;;;;11.51;90.02;99844.16;1697088;83;21100;-79
2022/11/01 02:50:13;;;;;;;40.38;15.63;;;;;;;11.47;89.81;99846.39;1700595;83;21117;-79
2022/11/01 02:52:41;;;;;;;32.55;14.03;;;;;;;11.45;90.68;99845.56;1700308;84;21378;-80
2022/11/01 02:55:32;;;;;;;36.77;13.98;;;;;;;11.43;89.83;99850.78;1700545;83;21695;-78
2022/11/01 02:58:20;;;;;;;40.05;14.90;;;;;;;11.41;90.46;99855.61;1712675;83;21042;-79
2022/11/01 03:00:48;;;;;;;34.80;14.05;;;;;;;11.40;89.98;99851.27;1696916;83;21022;-82
2022/11/01 03:03:27;;;;;;;42.35;15.35;;;;;;;11.33;90.15;99849.22;1703998;83;21052;-82
2022/11/01 03:06:07;;;;;;;37.95;15.75;;;;;;;11.35;90.51;99851.36;1714437;83;21657;-79
2022/11/01 03:08:45;;;;;;;51.40;16.00;;;;;;;11.37;90.83;99856.55;1685346;83;21520;-80
2022/11/01 03:11:20;;;;;;;48.58;16.62;;;;;;;11.35;91.16;99850.91;1698801;83;21713;-79
2022/11/01 03:14:21;;;;;;;53.55;18.37;;;;;;;11.37;90.85;99852.64;1714314;83;21550;-80
2022/11/01 03:16:57;;;;;;;50.40;17.67;;;;;;;11.38;91.07;99854.34;1707255;83;21078;-80
2022/11/01 03:19:50;;;;;;;47.27;16.52;;;;;;;11.37;91.22;99860.00;1692334;84;21077;-80
2022/11/01 03:22:28;;;;;;;44.67;16.80;;;;;;;11.35;91.20;99858.72;1695572;83;21653;-79
2022/11/01 03:28:21;;;;;;;45.38;16.77;;;;;;;11.24;90.96;99858.05;1700651;83;21052;-79
2022/11/01 03:31:14;;;;;;;51.50;18.20;;;;;;;11.21;91.41;99857.23;1722240;83;21080;-78
2022/11/01 03:33:50;;;;;;;51.28;17.55;;;;;;;11.21;91.00;99859.38;1721454;83;21031;-79
2022/11/01 03:36:21;;;;;;;53.25;17.27;;;;;;;11.17;91.50;99864.22;1719039;83;22186;-79
2022/11/01 03:39:00;;;;;;;49.03;17.17;;;;;;;11.12;90.65;99860.81;1704116;83;21066;-79
2022/11/01 03:41:35;;;;;;;45.75;15.43;;;;;;;11.06;90.71;99862.20;1712637;83;21534;-79
2022/11/01 03:44:03;;;;;;;43.98;15.98;;;;;;;11.03;90.72;99867.03;1697759;83;22134;-80
2022/11/01 03:46:31;;;;;;;48.58;17.52;;;;;;;10.96;90.87;99862.78;1715388;83;21040;-78
2022/11/01 03:48:59;;;;;;;47.05;16.97;;;;;;;10.95;91.22;99857.17;1700356;83;21026;-79
2022/11/01 03:51:26;;;;;;;59.88;17.80;;;;;;;10.94;91.64;99864.13;1718183;83;21057;-79
2022/11/01 03:53:54;;;;;;;47.88;17.85;;;;;;;10.93;90.86;99863.69;1701848;83;20991;-78
2022/11/01 03:56:22;;;;;;;47.78;17.05;;;;;;;10.92;91.45;99863.30;1708523;83;21036;-79
2022/11/01 03:58:49;;;;;;;51.40;18.05;;;;;;;10.90;91.99;99852.47;1701638;83;21578;-81
2022/11/01 04:01:17;;;;;;;64.22;18.32;;;;;;;10.99;91.69;99864.50;1700843;83;21015;-78
2022/11/01 04:03:45;;;;;;;44.93;17.37;;;;;;;10.97;91.16;99859.77;1702038;83;21050;-80
2022/11/01 04:06:12;;;;;;;48.38;18.07;;;;;;;10.87;90.78;99845.58;1721116;83;21066;-80
2022/11/01 04:08:40;;;;;;;59.25;17.85;;;;;;;10.93;91.90;99859.79;1719252;83;21064;-81
2022/11/01 04:11:07;;;;;;;57.65;17.73;;;;;;;10.96;92.17;99864.08;1711815;83;21082;-79
2022/11/01 04:13:35;;;;;;;56.40;19.10;;;;;;;11.01;91.67;99862.73;1700264;83;21132;-79
2022/11/01 04:21:35;;;;;;;60.65;18.25;;;;;;;11.01;91.88;99858.84;1711395;83;21137;-80
2022/11/01 04:24:03;;;;;;;51.05;18.30;;;;;;;11.00;91.94;99859.70;1697781;83;21060;-82
2022/11/01 04:26:31;;;;;;;53.55;16.75;;;;;;;10.99;92.08;99856.70;1711561;83;21575;-80
2022/11/01 04:28:58;;;;;;;50.43;16.45;;;;;;;10.99;91.83;99856.70;1703732;83;21036;-79
2022/11/01 04:31:35;;;;;;;55.00;17.05;;;;;;;11.01;92.24;99849.28;1716760;83;21003;-80
2022/11/01 04:34:04;;;;;;;52.45;17.57;;;;;;;11.05;92.59;99863.95;1705365;83;21072;-80
2022/11/01 04:36:32;;;;;;;49.10;16.25;;;;;;;11.08;92.90;99857.84;1684624;83;21108;-79
2022/11/01 04:39:00;;;;;;;46.25;16.27;;;;;;;11.09;92.94;99856.52;1686357;83;21451;-79
2022/11/01 04:41:28;;;;;;;51.30;17.40;;;;;;;11.14;92.95;99856.45;1688843;83;21037;-79
2022/11/01 04:43:58;;;;;;;44.75;16.30;;;;;;;11.20;92.35;99854.20;1709601;83;21625;-79
2022/11/01 04:46:30;;;;;;;49.90;15.53;;;;;;;11.15;91.54;99855.13;1701894;83;20998;-79
2022/11/01 04:48:58;;;;;;;52.65;16.67;;;;;;;11.15;92.43;99861.63;1718191;83;21038;-79
2022/11/01 04:51:26;;;;;;;49.10;16.55;;;;;;;11.22;92.67;99853.31;1702471;83;21047;-79
2022/11/01 04:53:53;;;;;;;48.00;16.57;;;;;;;11.28;92.80;99853.63;1713608;83;21086;-79
2022/11/01 04:56:21;;;;;;;48.33;16.42;;;;;;;11.30;92.43;99859.25;1722695;83;21676;-79
2022/11/01 04:58:48;;;;;;;36.85;13.53;;;;;;;11.32;92.57;99853.58;1700532;84;21520;-80
2022/11/01 05:01:16;;;;;;;28.45;11.97;;;;;;;11.34;92.21;99858.31;1721141;83;21064;-79
2022/11/01 05:03:44;;;;;;;24.07;10.85;;;;;;;11.33;92.00;99862.23;1705716;83;21079;-79
2022/11/01 05:06:11;;;;;;;29.65;11.40;;;;;;;11.28;91.38;99861.44;1676550;83;21046;-80
2022/11/01 05:08:39;;;;;;;25.60;11.35;;;;;;;11.25;92.31;99863.66;1713088;83;20991;-80
2022/11/01 05:11:07;;;;;;;26.57;10.55;;;;;;;11.30;92.22;99867.06;1701458;83;21015;-80
2022/11/01 05:13:35;;;;;;;26.50;12.13;;;;;;;11.32;91.89;99860.09;1713085;83;21026;-79
2022/11/01 05:16:03;;;;;;;23.90;10.85;;;;;;;11.32;91.82;99862.69;1706128;83;21040;-80
2022/11/01 05:18:31;;;;;;;26.45;10.95;;;;;;;11.32;91.99;99860.09;1705529;83;21024;-79
2022/11/01 05:20:58;;;;;;;24.05;10.65;;;;;;;11.33;91.92;99863.09;1711854;83;21033;-81
2022/11/01 05:23:26;;;;;;;23.80;10.30;;;;;;;11.34;92.17;99864.83;1713104;83;21098;-80
2022/11/01 05:25:54;;;;;;;23.32;10.85;;;;;;;11.38;91.92;99868.24;1702559;84;21146;-80
2022/11/01 05:28:22;;;;;;;24.95;11.65;;;;;;;11.39;91.68;99860.83;1674157;84;21054;-79
2022/11/01 05:30:50;;;;;;;28.80;11.65;;;;;;;11.41;92.09;99862.97;1718808;83;21124;-80
2022/11/01 05:33:17;;;;;;;24.20;10.95;;;;;;;11.41;91.35;99862.97;1702863;83;21032;-79
2022/11/01 05:35:45;;;;;;;29.48;10.70;;;;;;;11.41;91.88;99869.48;1716019;83;21000;-79
2022/11/01 05:38:13;;;;;;;24.45;11.50;;;;;;;11.42;91.41;99877.72;1703830;83;21103;-80
2022/11/01 05:40:40;;;;;;;21.40;10.15;;;;;;;11.38;91.52;99877.36;1708361;83;21022;-80
2022/11/01 05:43:08;;;;;;;24.35;10.35;;;;;;;11.34;91.49;99875.69;1701181;83;20995;-79
2022/11/01 05:45:36;;;;;;;43.38;18.35;;;;;;;11.35;91.63;99876.94;1701160;83;21031;-79
2022/11/01 05:48:04;;;;;;;37.93;14.53;;;;;;;11.33;91.29;99880.46;1701252;83;21159;-79
2022/11/01 05:50:32;;;;;;;36.10;15.48;;;;;;;11.31;91.23;99888.28;1704605;83;21073;-79
2022/11/01 05:53:09;;;;;;;30.45;12.85;;;;;;;11.28;91.64;99888.35;1709214;83;21407;-80
2022/11/01 05:55:38;;;;;;;35.45;14.65;;;;;;;11.28;91.62;99890.95;1696771;83;21027;-79
2022/11/01 05:58:06;;;;;;;34.20;13.48;;;;;;;11.23;91.40;99890.59;1696865;84;21021;-79
2022/11/01 06:00:34;;;;;;;32.20;13.65;;;;;;;11.18;91.82;99893.28;1701538;83;21030;-78
2022/11/01 06:03:02;;;;;;;24.52;10.43;;;;;;;11.24;92.36;99894.48;1714228;83;21009;-80
2022/11/01 06:05:31;;;;;;;23.00;10.53;;;;;;;11.29;92.13;99899.61;1697370;83;22167;-79
2022/11/01 06:08:03;;;;;;;23.95;10.80;;;;;;;11.28;92.04;99900.48;1701954;83;21117;-78
2022/11/01 06:10:31;;;;;;;24.60;10.72;;;;;;;11.33;92.05;99898.69;1701442;83;21052;-78
2022/11/01 06:12:59;;;;;;;21.80;10.35;;;;;;;11.33;91.65;99905.19;1710629;83;21082;-78
2022/11/01 06:15:27;;;;;;;24.95;10.80;;;;;;;11.33;91.53;99907.80;1701077;83;21064;-77
2022/11/01 06:17:59;;;;;;;21.07;10.55;;;;;;;11.36;91.78;99903.86;1714395;83;21178;-79
2022/11/01 06:20:30;;;;;;;26.57;11.15;;;;;;;11.39;91.51;99902.94;1701126;83;21096;-78
2022/11/01 06:22:58;;;;;;;25.50;10.68;;;;;;;11.41;91.77;99903.77;1698770;83;21076;-78
2022/11/01 06:25:27;;;;;;;24.55;10.82;;;;;;;11.44;91.41;99910.22;1697817;83;21058;-78
2022/11/01 06:27:55;;;;;;;25.48;11.33;;;;;;;11.43;91.36;99907.22;1694922;83;21049;-78
2022/11/01 06:30:22;;;;;;;28.98;11.03;;;;;;;11.37;91.79;99889.09;1695036;83;21084;-79
2022/11/01 06:32:50;;;;;;;26.33;11.70;;;;;;;11.52;91.61;99912.29;1698310;83;21543;-78
2022/11/01 06:35:18;;;;;;;24.95;9.80;;;;;;;11.57;91.44;99909.60;1690824;83;21318;-78
2022/11/01 06:37:46;;;;;;;28.85;12.63;;;;;;;11.61;91.06;99913.42;1681659;84;21088;-78
2022/11/01 06:40:14;;;;;;;35.70;13.98;;;;;;;11.54;90.95;99920.94;1670230;85;21585;-79
2022/11/01 06:42:41;;;;;;;34.63;12.18;;;;;;;11.52;90.69;99922.70;1688749;83;21006;-78
2022/11/01 06:45:09;;;;;;;29.80;12.05;;;;;;;11.47;90.70;99919.30;1681036;83;21004;-79
2022/11/01 06:47:37;;;;;;;30.10;11.30;;;;;;;11.43;90.70;99921.09;1686680;83;21099;-78
2022/11/01 06:50:05;;;;;;;33.55;11.35;;;;;;;11.35;91.30;99918.59;1679210;83;20995;-79
2022/11/01 06:52:33;;;;;;;34.27;12.47;;;;;;;11.21;90.98;99915.80;1677641;83;21003;-79
2022/11/01 06:55:00;;;;;;;33.13;11.70;;;;;;;11.11;91.24;99912.45;1682054;83;21030;-79
2022/11/01 06:57:28;;;;;;;31.17;12.40;;;;;;;10.99;91.38;99918.69;1644682;85;21602;-79
2022/11/01 06:59:57;;;;;;;29.87;11.60;;;;;;;11.00;91.60;99915.64;1643057;86;21027;-78
2022/11/01 07:02:24;;;;;;;32.88;12.30;;;;;;;11.04;92.33;99916.02;1626737;87;21056;-79
2022/11/01 07:04:52;;;;;;;28.60;11.38;;;;;;;11.04;92.26;99910.39;1634651;86;21039;-78
2022/11/01 07:07:20;;;;;;;27.17;11.20;;;;;;;11.05;92.22;99917.75;1631132;87;21552;-78
2022/11/01 07:09:47;;;;;;;25.72;11.05;;;;;;;11.04;92.01;99914.72;1637208;86;21064;-78
2022/11/01 07:12:15;;;;;;;27.95;10.82;;;;;;;10.98;92.31;99909.59;1650136;86;21024;-78
2022/11/01 07:14:43;;;;;;;28.30;10.18;;;;;;;10.95;91.99;99912.66;1622524;87;22177;-78
2022/11/01 07:17:11;;;;;;;24.25;10.68;;;;;;;10.95;92.14;99911.81;1621153;87;21064;-78
2022/11/01 07:19:38;;;;;;;26.40;10.60;;;;;;;10.90;92.30;99910.58;1632014;86;21081;-78
2022/11/01 07:22:07;;;;;;;25.35;11.55;;;;;;;10.92;92.30;99914.02;1623880;87;21403;-78
2022/11/01 07:24:35;;;;;;;32.75;11.90;;;;;;;10.92;92.62;99917.92;1631157;86;21583;-78
2022/11/01 07:27:02;;;;;;;25.68;10.50;;;;;;;10.89;93.31;99908.84;1634394;86;21053;-79
2022/11/01 07:29:30;;;;;;;24.87;11.03;;;;;;;10.88;92.85;99909.74;1660988;84;21073;-79
2022/11/01 07:31:58;;;;;;;28.62;11.15;;;;;;;10.88;93.06;99903.66;1655579;84;21935;-78
2022/11/01 07:34:25;;;;;;;32.63;13.03;;;;;;;10.90;92.97;99906.68;1659169;85;21103;-78
2022/11/01 07:36:53;;;;;;;32.03;13.50;;;;;;;10.94;92.91;99904.88;1656770;85;21112;-78
2022/11/01 07:39:20;;;;;;;31.10;13.05;;;;;;;10.99;92.29;99900.92;1654735;85;22387;-78
2022/11/01 07:41:50;;;;;;;29.85;12.47;;;;;;;10.94;92.55;99909.66;1663152;84;21075;-78
2022/11/01 07:44:17;;;;;;;29.02;12.60;;;;;;;10.98;92.43;99903.09;1660135;84;21563;-78
2022/11/01 07:46:45;;;;;;;25.45;11.25;;;;;;;10.97;92.05;99903.99;1634752;86;21051;-79
2022/11/01 07:49:13;;;;;;;26.97;10.65;;;;;;;10.93;92.33;99904.47;1636530;86;21046;-78
2022/11/01 07:51:40;;;;;;;23.73;9.75;;;;;;;10.85;92.97;99909.77;1617746;87;21551;-79
2022/11/01 07:54:08;;;;;;;29.00;10.28;;;;;;;10.90;92.83;99905.38;1620489;86;21596;-79
2022/11/01 07:56:35;;;;;;;22.17;10.28;;;;;;;10.91;93.10;99904.48;1635702;86;21035;-78
2022/11/01 07:59:03;;;;;;;20.60;9.60;;;;;;;10.97;92.84;99907.45;1604237;87;21055;-79
2022/11/01 08:01:30;;;;;;;26.95;9.58;;;;;;;11.02;92.89;99902.16;1644263;84;21051;-77
2022/11/01 08:03:58;;;;;;;22.75;9.08;;;;;;;11.07;92.90;99908.18;1661980;84;21067;-78
2022/11/01 08:06:26;;;;;;;24.95;9.48;;;;;;;11.14;92.66;99899.38;1619871;87;21111;-78
2022/11/01 08:08:54;;;;;;;24.72;10.50;;;;;;;11.21;92.24;99898.88;1607845;87;21076;-78
2022/11/01 08:11:21;;;;;;;22.42;10.40;;;;;;;11.20;92.22;99893.23;1606553;88;21232;-79
2022/11/01 08:13:49;;;;;;;22.93;10.10;;;;;;;11.23;92.06;99903.16;1607593;88;21104;-79
2022/11/01 08:16:17;;;;;;;30.55;11.65;;;;;;;11.21;92.24;99893.22;1655869;85;21064;-78
2022/11/01 08:18:45;;;;;;;24.25;10.08;;;;;;;11.22;92.28;99895.37;1644948;86;21027;-79
2022/11/01 08:21:17;;;;;;;28.62;10.18;;;;;;;11.27;92.22;99897.48;1630393;86;21445;-78
2022/11/01 08:23:42;;;;;;;22.60;9.23;;;;;;;11.24;92.04;99894.48;1599138;87;21087;-79
2022/11/01 08:26:11;;;;;;;27.32;10.28;;;;;;;11.22;91.96;99897.56;1634411;86;21990;-80
2022/11/01 08:28:39;;;;;;;27.25;9.88;;;;;;;11.20;91.73;99890.22;1621052;86;21163;-78
2022/11/01 08:31:08;;;;;;;28.32;10.90;;;;;;;11.27;91.99;99886.62;1655919;85;21645;-78
2022/11/01 08:33:36;;;;;;;25.72;10.63;;;;;;;11.34;92.04;99885.66;1667839;84;21091;-78
2022/11/01 08:36:03;;;;;;;29.10;10.38;;;;;;;11.42;91.64;99889.86;1693192;83;21042;-79
2022/11/01 08:38:31;;;;;;;25.68;11.15;;;;;;;11.48;91.79;99887.16;1694536;83;21579;-79
2022/11/01 08:40:59;;;;;;;34.43;11.53;;;;;;;11.52;91.47;99881.04;1688147;83;21066;-79
2022/11/01 08:43:27;;;;;;;27.45;12.43;;;;;;;11.56;91.25;99881.41;1690180;83;21041;-80
2022/11/01 08:45:58;;;;;;;27.37;11.28;;;;;;;11.62;91.04;99877.81;1689822;83;21024;-79
2022/11/01 08:48:26;;;;;;;28.17;10.25;;;;;;;11.69;91.00;99875.08;1701331;83;21279;-84
2022/11/01 08:50:54;;;;;;;22.07;9.88;;;;;;;11.71;91.02;99880.27;1696832;83;21143;-83
2022/11/01 08:53:23;;;;;;;23.52;10.05;;;;;;;11.74;90.81;99873.27;1693308;83;20996;-79
2022/11/01 08:55:56;;;;;;;24.60;10.98;;;;;;;11.79;90.81;99874.94;1693905;83;21354;-78
2022/11/01 08:58:24;;;;;;;23.22;9.83;;;;;;;11.89;90.33;99876.52;1688377;83;21043;-78
2022/11/01 09:00:52;;;;;;;24.30;10.35;;;;;;;12.01;90.17;99882.80;1695979;83;21124;-79
2022/11/01 09:03:19;;;;;;;22.35;10.65;;;;;;;12.05;90.12;99879.25;1682761;83;21215;-79
2022/11/01 09:05:47;;;;;;;21.25;9.80;;;;;;;12.12;89.90;99876.95;1696454;83;21028;-78
2022/11/01 09:08:15;;;;;;;24.07;10.03;;;;;;;12.21;89.73;99874.61;1690283;83;21086;-79
2022/11/01 09:10:42;;;;;;;27.02;10.95;;;;;;;12.30;88.53;99877.05;1705136;83;21087;-80
2022/11/01 16:07:06;;;;;;;44.40;19.23;;;;;;;11.26;84.61;99630.25;1707266;81;21462;-78
2022/11/01 16:09:53;;;;;;;33.35;15.72;;;;;;;11.31;84.44;99631.88;1698431;82;21038;-78
2022/11/01 16:12:30;;;;;;;36.15;16.20;;;;;;;11.31;84.89;99634.48;1701433;82;21092;-78
2022/11/01 16:15:07;;;;;;;39.00;17.48;;;;;;;11.35;84.89;99636.14;1694192;82;21048;-78
2022/11/01 16:17:39;;;;;;;50.78;20.15;;;;;;;11.36;84.42;99633.11;1708836;82;21068;-78
2022/11/01 16:20:36;;;;;;;44.18;18.12;;;;;;;11.38;84.89;99633.94;1711750;82;21059;-79
2022/11/01 16:23:13;;;;;;;43.15;16.50;;;;;;;11.42;85.05;99634.30;1709587;82;20980;-78
2022/11/01 16:25:40;;;;;;;28.52;13.85;;;;;;;11.45;84.31;99639.88;1698706;82;21055;-78
2022/11/01 16:28:13;;;;;;;32.13;13.50;;;;;;;11.39;85.10;99637.39;1695516;82;21574;-77
2022/11/01 16:30:51;;;;;;;27.48;12.18;;;;;;;11.31;85.14;99643.59;1707883;82;21016;-78
2022/11/01 16:33:29;;;;;;;26.12;13.13;;;;;;;11.32;85.52;99645.33;1711149;82;21052;-77
2022/11/01 16:36:20;;;;;;;36.28;16.27;;;;;;;11.34;85.96;99646.61;1723993;82;21543;-78
2022/11/01 16:38:52;;;;;;;31.55;13.35;;;;;;;11.39;85.67;99638.70;1713271;83;21095;-79
2022/11/01 16:41:31;;;;;;;36.70;15.85;;;;;;;11.44;86.05;99642.93;1706963;83;21622;-78
2022/11/01 16:44:14;;;;;;;42.55;19.37;;;;;;;11.51;86.45;99646.25;1705804;82;21085;-79
2022/11/01 16:46:43;;;;;;;77.17;30.23;;;;;;;11.58;86.23;99646.55;1720059;82;21008;-79
2022/11/01 16:49:21;;;;;;;61.83;27.82;;;;;;;11.60;85.86;99646.08;1710990;82;21080;-78
2022/11/01 16:51:51;;;;;;;43.08;20.27;;;;;;;11.60;84.87;99646.08;1721643;82;21082;-78
2022/11/01 16:54:19;;;;;;;41.63;19.42;;;;;;;11.60;85.54;99646.08;1708275;82;21484;-79
2022/11/01 16:56:53;;;;;;;56.13;24.15;;;;;;;11.59;85.34;99648.26;1719328;82;21008;-79
2022/11/01 16:59:36;;;;;;;70.83;28.20;;;;;;;11.63;85.96;99650.36;1706942;82;21012;-79
2022/11/01 17:02:23;;;;;;;62.73;25.15;;;;;;;11.67;86.01;99652.02;1708244;82;20992;-80
2022/11/01 17:05:03;;;;;;;28.98;14.40;;;;;;;11.69;85.63;99650.23;1692494;83;20965;-79
2022/11/01 17:07:30;;;;;;;31.10;13.28;;;;;;;11.70;85.87;99651.51;1719456;82;21635;-79
2022/11/01 17:09:58;;;;;;;35.10;13.38;;;;;;;11.74;85.81;99647.95;1709451;83;22202;-78
2022/11/01 17:12:26;;;;;;;27.90;13.65;;;;;;;11.76;85.93;99651.83;1715851;83;21571;-79
2022/11/01 17:14:54;;;;;;;31.80;13.53;;;;;;;11.78;85.54;99659.17;1701445;83;21966;-78
2022/11/01 17:17:26;;;;;;;42.00;18.25;;;;;;;11.75;85.69;99658.77;1712998;83;21052;-79
2022/11/01 17:19:58;;;;;;;44.40;20.45;;;;;;;11.77;85.75;99659.19;1694811;83;21024;-79
2022/11/01 17:22:33;;;;;;;48.28;19.80;;;;;;;11.77;85.06;99654.83;1719007;83;21051;-80
2022/11/01 17:25:05;;;;;;;32.63;14.87;;;;;;;11.70;84.39;99654.11;1702830;83;21056;-79
2022/11/01 17:27:33;;;;;;;27.20;13.72;;;;;;;11.66;84.23;99654.22;1720455;83;21051;-79
2022/11/01 17:30:01;;;;;;;31.27;13.22;;;;;;;11.63;84.43;99647.30;1708313;83;21880;-79
2022/11/01 17:32:29;;;;;;;30.62;12.73;;;;;;;11.63;84.55;99649.91;1716344;83;21028;-80
2022/11/01 17:34:56;;;;;;;28.32;12.45;;;;;;;11.61;84.33;99646.48;1713763;82;21127;-78
2022/11/01 17:37:30;;;;;;;28.35;13.45;;;;;;;11.58;84.32;99646.55;1712649;83;21032;-78
2022/11/01 17:39:54;;;;;;;28.70;14.47;;;;;;;11.55;84.18;99645.30;1708176;82;21563;-79
2022/11/01 17:42:22;;;;;;;26.73;13.03;;;;;;;11.53;84.17;99644.48;1709537;83;21061;-79
2022/11/01 17:44:52;;;;;;;32.38;14.00;;;;;;;11.47;83.93;99644.61;1729685;83;21078;-78
2022/11/01 17:47:19;;;;;;;32.23;12.47;;;;;;;11.48;84.38;99655.00;1707930;83;21067;-79
2022/11/01 17:49:47;;;;;;;25.62;12.93;;;;;;;11.47;84.10;99652.41;1717068;83;21032;-79
2022/11/01 17:52:15;;;;;;;28.42;13.05;;;;;;;11.43;84.00;99650.31;1706618;82;21039;-79
2022/11/01 17:54:42;;;;;;;27.20;12.35;;;;;;;11.39;84.06;99647.80;1713929;83;21071;-78
2022/11/01 17:57:09;;;;;;;34.90;13.08;;;;;;;11.29;83.97;99640.16;1707027;82;21075;-79
2022/11/01 17:59:37;;;;;;;26.23;12.18;;;;;;;11.32;84.28;99657.45;1680217;85;21027;-79
2022/11/01 18:02:05;;;;;;;33.65;13.40;;;;;;;11.31;84.36;99655.31;1714291;83;21598;-79
2022/11/01 18:04:32;;;;;;;24.07;11.25;;;;;;;11.30;84.43;99648.41;1714094;83;21566;-79
2022/11/01 18:07:06;;;;;;;25.37;12.15;;;;;;;11.32;84.31;99645.75;1702067;84;21094;-78
2022/11/01 18:09:31;;;;;;;26.07;12.07;;;;;;;11.26;84.16;99647.17;1705206;82;21037;-79
2022/11/01 18:12:10;;;;;;;22.62;11.55;;;;;;;11.25;84.46;99645.47;1676665;84;21079;-79
2022/11/01 18:14:52;;;;;;;24.75;10.93;;;;;;;11.23;84.46;99644.64;1719043;82;21032;-79
2022/11/01 18:17:44;;;;;;;24.90;12.37;;;;;;;11.20;84.40;99644.69;1699247;83;21031;-77
2022/11/01 18:20:50;;;;;;;27.20;11.95;;;;;;;11.18;84.51;99644.73;1711422;82;21024;-78
2022/11/01 18:23:20;;;;;;;21.00;10.55;;;;;;;11.13;84.33;99649.16;1679190;82;21115;-82
2022/11/01 18:25:50;;;;;;;25.27;11.05;;;;;;;11.05;84.35;99654.50;1714943;82;20992;-79
2022/11/01 18:28:22;;;;;;;27.15;11.53;;;;;;;11.01;84.46;99645.03;1716789;82;21048;-78
2022/11/01 18:30:57;;;;;;;24.37;10.83;;;;;;;11.01;84.72;99647.63;1722579;82;20992;-79
2022/11/01 18:33:43;;;;;;;19.67;10.32;;;;;;;11.03;84.76;99648.91;1712263;84;21024;-78
2022/11/01 18:36:31;;;;;;;20.08;10.10;;;;;;;11.04;84.92;99642.81;1720811;82;21670;-77
2022/11/01 18:39:23;;;;;;;23.25;9.15;;;;;;;11.05;84.68;99651.89;1710031;83;21027;-78
2022/11/01 18:41:51;;;;;;;20.52;9.98;;;;;;;11.01;84.38;99649.39;1723520;82;20997;-79